createdAt,value
2022-08-04T00:01:54.977Z,23.80
2022-08-04T00:04:31.469Z,23.90
2022-08-04T00:07:09.463Z,23.80
2022-08-04T00:09:45.801Z,23.90
2022-08-04T00:12:18.816Z,23.90
2022-08-04T00:14:50.813Z,23.80
2022-08-04T00:17:21.777Z,23.80
2022-08-04T00:19:54.462Z,23.80
2022-08-04T00:22:28.540Z,23.80
2022-08-04T00:24:57.760Z,23.70
2022-08-04T00:27:29.724Z,23.70
2022-08-04T00:29:58.699Z,23.70
2022-08-04T00:32:33.971Z,23.70
2022-08-04T00:35:04.353Z,23.70
2022-08-04T00:37:35.036Z,23.60
2022-08-04T00:40:08.320Z,23.60
2022-08-04T00:42:49.474Z,23.60
2022-08-04T00:46:15.452Z,23.50
2022-08-04T00:48:57.244Z,23.50
2022-08-04T00:51:33.893Z,23.50
2022-08-04T00:54:11.637Z,23.50
2022-08-04T00:56:52.031Z,23.50
2022-08-04T00:59:40.331Z,23.40
2022-08-04T01:02:18.859Z,23.40
2022-08-04T01:04:51.362Z,23.40
2022-08-04T01:07:54.191Z,23.40
2022-08-04T01:10:32.852Z,23.40
2022-08-04T01:13:20.775Z,23.30
2022-08-04T01:16:01.615Z,23.20
2022-08-04T01:18:37.449Z,23.20
2022-08-04T01:21:29.428Z,23.20
2022-08-04T01:24:30.764Z,23.10
2022-08-04T01:27:05.016Z,23.10
2022-08-04T01:29:46.954Z,23.10
2022-08-04T01:32:26.075Z,23.00
2022-08-04T01:35:02.319Z,23.00
2022-08-04T01:37:48.830Z,23.00
2022-08-04T01:40:17.997Z,23.00
2022-08-04T01:42:46.676Z,23.00
2022-08-04T01:45:16.898Z,22.90
2022-08-04T01:47:51.392Z,22.90
2022-08-04T01:50:20.140Z,22.90
2022-08-04T01:52:51.372Z,22.90
2022-08-04T01:55:20.526Z,22.90
2022-08-04T01:57:51.801Z,22.90
2022-08-04T02:00:24.367Z,22.90
2022-08-04T02:02:52.901Z,22.90
2022-08-04T02:05:23.927Z,22.80
2022-08-04T02:08:06.356Z,22.90
2022-08-04T02:10:52.914Z,22.80
2022-08-04T02:13:25.276Z,22.80
2022-08-04T09:22:00.364Z,29.60
2022-08-04T09:24:37.268Z,29.60
2022-08-04T09:27:15.460Z,29.80
2022-08-04T09:29:53.311Z,29.90
2022-08-04T09:32:32.196Z,29.80
2022-08-04T09:35:20.766Z,29.70
2022-08-04T09:38:03.904Z,29.60
2022-08-04T09:40:53.550Z,29.50
2022-08-04T09:43:58.721Z,29.50
2022-08-04T09:46:30.410Z,29.40
2022-08-04T09:49:04.257Z,29.30
2022-08-04T09:51:57.957Z,29.30
2022-08-04T09:54:39.725Z,29.30
2022-08-04T09:57:15.435Z,29.60
2022-08-04T09:59:55.538Z,29.80
2022-08-04T10:02:26.838Z,29.90
2022-08-04T10:04:58.623Z,30.00
2022-08-04T10:08:02.162Z,29.80
2022-08-04T10:10:47.993Z,29.80
2022-08-04T10:13:25.000Z,29.60
2022-08-04T10:16:07.391Z,29.50
2022-08-04T10:18:50.887Z,29.60
2022-08-04T10:21:27.926Z,29.50
2022-08-04T10:24:17.161Z,29.50
2022-08-04T10:26:57.009Z,29.40
2022-08-04T10:29:29.583Z,29.30
2022-08-04T10:32:05.631Z,29.20
2022-08-04T10:34:44.442Z,29.10
2022-08-04T10:37:21.380Z,29.00
2022-08-04T10:40:15.465Z,28.90
2022-08-04T10:42:55.037Z,28.80
2022-08-04T10:45:27.355Z,28.70
2022-08-04T10:48:03.397Z,28.70
2022-08-04T10:50:33.686Z,28.60
2022-08-04T10:53:07.793Z,28.50
2022-08-04T10:56:05.694Z,28.40
2022-08-04T10:58:49.086Z,28.30
2022-08-04T11:02:01.954Z,28.10
2022-08-04T11:04:27.254Z,28.00
2022-08-04T11:06:57.354Z,27.80
2022-08-04T11:09:26.496Z,27.70
2022-08-04T11:12:02.129Z,27.60
2022-08-04T11:14:38.844Z,27.50
2022-08-04T11:17:12.636Z,27.60
2022-08-04T11:19:53.203Z,27.70
2022-08-04T11:22:27.156Z,27.90
2022-08-04T11:25:09.501Z,28.30
2022-08-04T11:27:46.205Z,28.60
2022-08-04T11:30:18.504Z,28.80
2022-08-04T11:33:01.552Z,28.80
2022-08-04T11:35:36.166Z,28.80
2022-08-04T11:38:11.306Z,28.80
2022-08-04T11:40:55.934Z,28.70
2022-08-04T11:44:01.608Z,28.60
2022-08-04T11:46:37.022Z,28.70
2022-08-04T11:49:09.331Z,28.70
2022-08-04T11:51:38.303Z,28.80
2022-08-04T11:54:07.437Z,28.90
2022-08-04T11:56:38.027Z,29.00
2022-08-04T12:03:13.968Z,29.30
2022-08-04T12:05:53.129Z,29.40
2022-08-04T12:08:37.233Z,29.50
2022-08-04T12:11:18.624Z,29.60
2022-08-04T12:14:00.465Z,29.50
2022-08-04T12:16:34.941Z,29.40
2022-08-04T12:19:12.319Z,29.40
2022-08-04T12:21:50.429Z,29.40
2022-08-04T12:24:27.335Z,29.50
2022-08-04T12:27:01.419Z,29.50
2022-08-04T12:29:34.762Z,29.60
2022-08-04T12:32:11.722Z,29.70
2022-08-04T12:34:47.722Z,30.00
2022-08-04T12:37:24.905Z,30.50
2022-08-04T12:40:21.707Z,30.90
2022-08-04T12:42:56.080Z,31.00
2022-08-04T12:45:29.574Z,30.80
2022-08-04T12:48:00.395Z,30.70
2022-08-04T12:50:30.614Z,30.70
2022-08-04T12:53:02.715Z,30.60
2022-08-04T12:55:35.098Z,30.50
2022-08-04T12:58:04.041Z,30.40
2022-08-04T13:00:41.298Z,30.20
2022-08-04T13:03:13.276Z,30.00
2022-08-04T13:05:44.008Z,29.80
2022-08-04T13:08:13.719Z,29.70
2022-08-04T13:10:43.668Z,29.60
2022-08-04T13:13:18.870Z,29.50
2022-08-04T13:15:58.362Z,29.40
2022-08-04T13:18:32.316Z,29.40
2022-08-04T13:21:20.608Z,29.20
2022-08-04T13:24:20.619Z,29.00
2022-08-04T13:26:54.497Z,28.90
2022-08-04T13:29:57.710Z,28.80
2022-08-04T13:32:17.892Z,28.70
2022-08-04T13:34:52.644Z,28.50
2022-08-04T13:37:26.214Z,28.50
2022-08-04T13:39:56.860Z,28.30
2022-08-04T13:42:27.536Z,28.20
2022-08-04T13:44:58.333Z,28.20
2022-08-04T13:47:30.523Z,28.20
2022-08-04T13:50:16.689Z,28.10
2022-08-04T13:52:47.120Z,28.00
2022-08-04T13:55:23.777Z,28.00
2022-08-04T13:57:57.508Z,28.00
2022-08-04T14:00:33.391Z,28.00
2022-08-04T14:03:23.411Z,27.90
2022-08-04T14:06:13.993Z,27.90
2022-08-04T14:08:52.979Z,27.90
2022-08-04T14:12:07.041Z,27.90
2022-08-04T14:14:19.613Z,27.90
2022-08-04T14:17:29.748Z,27.90
2022-08-04T14:20:01.032Z,27.80
2022-08-04T14:22:35.044Z,27.80
2022-08-04T14:25:15.568Z,27.70
2022-08-04T14:27:46.757Z,27.70
2022-08-04T14:30:26.465Z,27.70
2022-08-04T14:33:59.594Z,27.60
2022-08-04T14:36:04.282Z,27.60
2022-08-04T14:38:56.446Z,27.60
2022-08-04T14:41:30.241Z,27.50
2022-08-04T14:44:02.291Z,27.50
2022-08-04T14:46:36.146Z,27.50
2022-08-04T14:49:10.385Z,27.40
2022-08-04T14:51:41.887Z,27.40
2022-08-04T14:54:17.328Z,27.40
2022-08-04T14:56:54.761Z,27.40
2022-08-04T14:59:23.553Z,27.30
2022-08-04T15:02:00.539Z,27.20
2022-08-04T15:04:31.437Z,27.20
2022-08-04T15:07:00.963Z,27.10
2022-08-04T15:09:33.789Z,27.10
2022-08-04T15:12:05.231Z,27.10
2022-08-04T15:14:36.468Z,27.10
2022-08-04T15:17:12.340Z,27.20
2022-08-04T15:19:58.168Z,27.20
2022-08-04T15:22:26.804Z,27.30
2022-08-04T15:24:56.093Z,27.30
2022-08-04T15:27:33.700Z,27.40
2022-08-04T15:30:05.044Z,27.50
2022-08-04T15:32:35.812Z,27.50
2022-08-04T15:35:06.725Z,27.60
2022-08-04T15:37:47.648Z,27.70
2022-08-04T15:40:27.093Z,27.80
2022-08-04T15:43:18.098Z,27.90
2022-08-04T15:46:33.220Z,27.90
2022-08-04T15:48:42.618Z,28.00
2022-08-04T15:51:15.566Z,28.10
2022-08-04T15:54:27.537Z,28.20
2022-08-04T15:57:02.220Z,28.30
2022-08-04T16:00:01.401Z,28.40
2022-08-04T16:02:51.155Z,28.50
2022-08-04T16:05:42.245Z,28.60
2022-08-04T16:08:17.838Z,28.70
2022-08-04T16:10:49.181Z,28.70
2022-08-04T16:13:19.830Z,28.80
2022-08-04T16:15:51.869Z,28.80
2022-08-04T16:18:40.922Z,28.80
2022-08-04T16:21:19.780Z,28.80
2022-08-04T16:24:08.119Z,28.70
2022-08-04T16:26:57.271Z,28.70
2022-08-04T16:29:43.881Z,28.60
2022-08-04T16:32:25.299Z,28.60
2022-08-04T16:35:00.193Z,28.50
2022-08-04T16:37:34.537Z,28.50
2022-08-04T16:40:34.657Z,28.50
2022-08-04T16:43:06.607Z,28.40
2022-08-04T16:45:43.361Z,28.40
2022-08-04T16:48:13.977Z,28.40
2022-08-04T16:50:54.713Z,28.30
2022-08-04T16:53:53.037Z,28.30
2022-08-04T16:56:15.123Z,28.30
2022-08-04T16:58:53.085Z,28.20
2022-08-04T17:01:34.167Z,28.20
2022-08-04T17:04:08.650Z,28.20
2022-08-04T17:06:38.529Z,28.20
2022-08-04T17:09:10.467Z,28.20
2022-08-04T17:11:38.892Z,28.10
2022-08-04T17:14:07.994Z,28.10
2022-08-04T17:16:39.378Z,28.10
2022-08-04T17:19:23.857Z,28.00
2022-08-04T17:22:02.898Z,28.00
2022-08-04T17:24:35.080Z,28.00
2022-08-04T17:28:19.576Z,27.90
2022-08-04T17:29:58.750Z,27.80
2022-08-04T17:32:27.551Z,27.80
2022-08-04T17:35:01.579Z,27.70
2022-08-04T17:37:38.394Z,27.70
2022-08-04T17:40:14.465Z,27.60
2022-08-04T17:42:47.224Z,27.60
2022-08-04T17:48:10.082Z,27.50
2022-08-04T17:50:43.843Z,27.50
2022-08-04T17:53:13.371Z,27.40
2022-08-04T17:55:50.607Z,27.40
2022-08-04T17:58:22.157Z,27.30
2022-08-04T18:03:53.428Z,27.30
2022-08-04T18:06:25.497Z,27.20
2022-08-04T18:08:59.398Z,27.10
2022-08-04T18:11:53.956Z,27.10
2022-08-04T18:14:25.899Z,27.00
2022-08-04T18:16:57.688Z,27.00
2022-08-04T18:19:25.922Z,26.90
2022-08-04T18:22:01.335Z,26.90
2022-08-04T18:24:35.434Z,26.90
2022-08-04T18:27:21.081Z,26.90
2022-08-04T18:30:15.278Z,26.80
2022-08-04T18:33:04.131Z,26.80
2022-08-04T18:36:31.361Z,26.60
2022-08-04T18:38:22.345Z,26.60
2022-08-04T18:40:53.646Z,26.60
2022-08-04T18:43:30.337Z,26.50
2022-08-04T18:46:01.806Z,26.40
2022-08-04T18:48:36.316Z,26.40
2022-08-04T18:51:22.614Z,26.30
2022-08-04T18:53:55.412Z,26.30
2022-08-04T18:56:31.745Z,26.30
2022-08-04T18:59:04.214Z,26.20
2022-08-04T19:02:12.906Z,26.20
2022-08-04T19:04:33.762Z,26.10
2022-08-04T19:07:24.429Z,26.10
2022-08-04T19:12:45.422Z,26.00
2022-08-04T19:15:13.984Z,25.90
2022-08-04T19:17:57.047Z,25.90
2022-08-04T19:20:30.760Z,25.90
2022-08-04T19:24:28.584Z,25.90
2022-08-04T19:26:01.461Z,25.80
2022-08-04T19:28:35.253Z,25.80
2022-08-04T19:31:05.736Z,25.80
2022-08-04T19:33:58.730Z,25.70
2022-08-04T19:36:28.767Z,25.60
2022-08-04T19:38:58.868Z,25.60
2022-08-04T19:41:29.542Z,25.50
2022-08-04T19:43:59.515Z,25.50
2022-08-04T19:46:28.934Z,25.40
2022-08-04T19:49:00.424Z,25.40
2022-08-04T19:51:30.437Z,25.40
2022-08-04T19:54:03.884Z,25.30
2022-08-04T19:56:41.494Z,25.30
2022-08-04T19:59:10.946Z,25.20
2022-08-04T20:01:45.284Z,25.20
2022-08-04T20:04:14.900Z,25.20
2022-08-04T20:06:44.157Z,25.10
2022-08-04T20:09:24.978Z,25.10
2022-08-04T20:11:56.928Z,25.00
2022-08-04T20:14:31.768Z,25.00
2022-08-04T20:17:01.923Z,25.00
2022-08-04T20:19:30.790Z,24.90
2022-08-04T20:21:59.960Z,25.00
2022-08-04T20:27:19.391Z,25.00
2022-08-04T20:29:50.996Z,24.90
2022-08-04T20:32:22.079Z,24.90
2022-08-04T20:34:51.429Z,24.90
2022-08-04T20:37:20.586Z,24.90
2022-08-04T20:39:54.909Z,24.90
2022-08-04T20:42:27.501Z,24.90
2022-08-04T20:45:02.432Z,24.90
2022-08-04T20:47:35.241Z,24.90
2022-08-04T20:50:05.779Z,24.90
2022-08-04T20:52:41.188Z,24.90
2022-08-04T20:55:17.397Z,24.90
2022-08-04T20:57:57.466Z,24.90
2022-08-04T21:00:31.067Z,24.90
2022-08-04T21:03:00.248Z,24.90
2022-08-04T21:05:28.578Z,24.80
2022-08-04T21:07:57.754Z,24.80
2022-08-04T21:10:26.807Z,24.80
2022-08-04T21:12:57.172Z,24.90
2022-08-04T21:15:50.748Z,24.80
2022-08-04T21:18:16.951Z,24.80
2022-08-04T21:20:48.083Z,24.80
2022-08-04T21:23:34.184Z,24.70
2022-08-04T21:26:03.353Z,24.70
2022-08-04T21:28:33.834Z,24.60
2022-08-04T21:31:10.902Z,24.50
2022-08-04T21:33:50.470Z,24.50
2022-08-04T21:36:20.796Z,24.50
2022-08-04T21:42:02.106Z,24.10
2022-08-04T21:44:28.060Z,23.90
2022-08-04T21:46:56.874Z,23.70
2022-08-04T21:49:25.096Z,23.50
2022-08-04T21:52:00.729Z,23.30
2022-08-04T21:54:29.706Z,23.20
2022-08-04T21:56:57.937Z,23.00
2022-08-04T21:59:30.407Z,22.90
2022-08-04T22:02:01.965Z,22.80
2022-08-04T22:04:31.706Z,22.70
2022-08-04T22:07:02.995Z,22.60
2022-08-04T22:09:38.918Z,22.50
2022-08-04T22:12:12.339Z,22.40
2022-08-04T22:14:50.259Z,22.30
2022-08-04T22:17:25.957Z,22.30
2022-08-04T22:19:56.153Z,22.20
2022-08-04T22:28:03.523Z,22.00
2022-08-04T22:30:37.027Z,22.00
2022-08-04T22:33:08.142Z,21.90
2022-08-04T22:35:48.917Z,21.80
2022-08-04T22:38:25.388Z,21.80
2022-08-04T22:41:02.332Z,21.80
2022-08-04T22:43:34.674Z,21.70
2022-08-04T22:46:07.386Z,21.70
2022-08-04T22:48:36.814Z,21.60
2022-08-04T22:51:06.290Z,21.60
2022-08-04T22:53:35.779Z,21.60
2022-08-04T22:56:09.959Z,21.60
2022-08-04T22:58:45.037Z,21.50
2022-08-04T23:01:16.327Z,21.50
2022-08-04T23:03:55.432Z,21.50
2022-08-04T23:06:28.526Z,21.50
2022-08-04T23:08:57.362Z,21.50
2022-08-04T23:11:35.103Z,21.40
2022-08-04T23:14:05.845Z,21.40
2022-08-04T23:16:40.739Z,21.40
2022-08-04T23:19:15.074Z,21.40
2022-08-04T23:21:47.952Z,21.40
2022-08-04T23:24:30.002Z,21.30
2022-08-04T23:26:59.231Z,21.30
2022-08-04T23:29:27.725Z,21.30
2022-08-04T23:32:20.435Z,21.20
2022-08-04T23:34:48.731Z,21.20
2022-08-04T23:37:16.891Z,21.20
2022-08-04T23:40:14.687Z,21.20
2022-08-04T23:42:33.312Z,21.20
2022-08-04T23:45:01.615Z,21.20
2022-08-04T23:48:18.613Z,21.20
2022-08-04T23:50:19.791Z,21.20
2022-08-04T23:52:49.555Z,21.20
2022-08-04T23:55:19.223Z,21.20
2022-08-04T23:58:05.712Z,21.10
